Xuzhou, China
Current Conditions -  °F | °C
As of 6:00 PM on Saturday 20 Dec 2014 (Local Time) from ZSOF Reporting Station
Clear Clear  
Wind Chill: 34°   Ceiling: Unl
Heat Index: 39°   Visibility: 4mi
Dew Point: 19°   Wind: 7mph
Humidity: 45%   Direction: 70°ENE
Pressure: 30.39"   Gusts: NA
Location:  34.27°N, 117.18°E
Report Text: ZSOF 201000Z 07003MPS 7000 NSC 04/M07 Q1029 NOSIG
Loading
Personal Weather Stations






























Interactive Weather Map New forecast layout! Learn more

10-Day Weather Forecast

Advertisements
Track Severe Weather on mobile